Аэропорт: Ульяновск-Восточный. Ульяновск

ICAO: UWLW

METAR:
2018/09/19 07:00
UWLW 190700Z 31010G15MPS 8000 BKN026CB 11/07 Q1006 R02/CLRD60 NOSIG RMK QFE748
METAR:
2018/09/19 06:24
TAF UWLW 190445Z 1906/2006 30008G13MPS 8000 BKN020 
      TEMPO 1906/1921 34010G17MPS 3100 -SHRA BKN011 BKN015CB